Downs, Illinois
Current Conditions -  °F | °C
As of 12:56 AM on Sunday 23 Nov 2014 (Local Time) from KBMI Reporting Station
Broken Clouds Broken Clouds  
Wind Chill: 44°   Ceiling: 7000
Heat Index: 49°   Visibility: 9mi
Dew Point: 47°   Wind: 13mph
Humidity: 93%   Direction: 190°S
Pressure: 29.85"   Gusts: NA
Location:  40.4°N, 88.87°W
Report Text: KBMI 230656Z AUTO 19011KT 9SM FEW049 BKN070 09/08 A2985 RMK AO2 T00940083 SLP111
Loading
Personal Weather Stations






























Interactive Weather Map New forecast layout! Learn more

10-Day Weather Forecast

Advertisements
Track Severe Weather on mobile